Terminal Aerodrome Forecast
Issued by NWS

Home | Current Version | Previous Version | Graphics & Text | Print | Product List | Glossary On
Versions: 1 2 3 4 5 6 7 8 9 10 11 12 13 14 15 16 17 18 19 20
000
FTUS43 KICT 051140
TAFRSL
TAF
KRSL 051140Z 0512/0612 19012KT P6SM SCT250
     FM051500 19018G25KT P6SM BKN250
     FM052100 20010KT P6SM SCT250
     FM060030 33012KT P6SM SCT120
     FM060300 36015G25KT P6SM SCT250=

USA.gov is the U.S. government's official web portal to all federal, state and local government web resources and services.